Airfield :
LOGIN :

Register | Disclaimer

   EN    FR    IT 

 










Legend :    VFR   Marginal VFR   IFR   Intensive IFR   Very Intensive IFR
Visi :
Ceiling :
>= 8 km
>= 3000ft
5 to 8 km
1000 to 3000 ft
1500m to 5 km
500 to 1000 ft
800 to 1500m
200 to 500 ft
< 800m
< 200 ft
Symbols :   Thunderstorms  Fog  Heavy snow  Heavy precipitations  Wind > 20 kt
SIGMETs :     Misc.  Thunderstorms  Icing  Turbulence  Mountain Waves  Volcanic Ashes







- Airport Elevation : 194 ft


EBCV - Chièvres

CURRENT METAR :
  • 231455Z AUTO 20015KT 9999 OVC007/// 09/08 Q1020 GRN

EXPIRED METARs :
  • 231446Z AUTO 20015KT 9999 DZ OVC007/// 09/08 Q1020 GRN
  • 231425Z AUTO 20017KT 2500 -RA OVC007/// 09/08 Q1020 YLO
  • 231355Z AUTO 21016KT 3100 -RA OVC013/// 09/08 Q1020 YLO
  • 231345Z AUTO 21017KT 3600 -RA OVC015/// 09/07 Q1020 YLO
  • 231333Z AUTO 21017KT 4800 OVC019/// 10/07 Q1020 GRN
  • 231325Z AUTO 21017KT 9999 OVC021/// 10/07 Q1020 WHT
  • 231255Z AUTO 21015KT 9999 OVC024/// 10/07 Q1020 WHT
  • 231225Z AUTO 21014KT 9999 -RA BKN038/// OVC056/// 10/07 Q1021 BLU

TAF TAF EBCV
Valid from the 23 at 13:00 until the 23 at 22:00 UTC


231141Z 2313/2322 21012KT 9999 SCT022 BKN035
BECMG 2313/2314 21015KT SCT008 BKN012
TEMPO 2314/2316 21015G25KT 3000 -RADZ SCT004 BKN006
TEMPO 2316/2322 21017G28KT 4500 -DZ FEW004 SCT006 BKN008 BY EBWM
No reported NOTAMs for that airfield.



MET'MAP, your aeronautical weather chart ! - Copyright ORBIFLY December 2007 - Disclaimer

ORBIFLY MET'MAP TEAM :

Programming & Development : Alexandra Zaïnal
Concept & Development : Baudouin d'Aumeries
Co-Development & Prog : Marc-Olivier Méhu
Technical & hardware support : Manuel Goepfert

Contact : metmap@orbifly.com




SOURCES & CREDITS :

   NOAA